sensor_id;sensor_type;location;lat;lon;timestamp;P1;durP1;ratioP1;P2;durP2;ratioP2
61003;SDS011;46889;37.310;13.582;2023-04-24T00:00:30;3.40;;;2.25;;
61003;SDS011;46889;37.310;13.582;2023-04-24T00:02:56;5.63;;;2.65;;
61003;SDS011;46889;37.310;13.582;2023-04-24T00:05:23;4.47;;;2.42;;
61003;SDS011;46889;37.310;13.582;2023-04-24T00:07:49;4.85;;;2.75;;
61003;SDS011;46889;37.310;13.582;2023-04-24T00:10:18;4.78;;;2.45;;
61003;SDS011;46889;37.310;13.582;2023-04-24T00:12:44;6.45;;;2.38;;
61003;SDS011;46889;37.310;13.582;2023-04-24T00:15:11;5.53;;;2.50;;
61003;SDS011;46889;37.310;13.582;2023-04-24T00:17:37;5.82;;;2.10;;
61003;SDS011;46889;37.310;13.582;2023-04-24T00:20:03;6.97;;;2.80;;
61003;SDS011;46889;37.310;13.582;2023-04-24T00:22:32;4.47;;;2.63;;
61003;SDS011;46889;37.310;13.582;2023-04-24T00:24:58;4.07;;;2.45;;
61003;SDS011;46889;37.310;13.582;2023-04-24T00:27:24;4.28;;;2.22;;
61003;SDS011;46889;37.310;13.582;2023-04-24T00:29:50;4.60;;;2.30;;
61003;SDS011;46889;37.310;13.582;2023-04-24T00:32:16;5.07;;;2.50;;
61003;SDS011;46889;37.310;13.582;2023-04-24T00:34:42;4.43;;;2.58;;
61003;SDS011;46889;37.310;13.582;2023-04-24T00:37:08;4.60;;;2.93;;
61003;SDS011;46889;37.310;13.582;2023-04-24T00:39:35;6.57;;;3.30;;
61003;SDS011;46889;37.310;13.582;2023-04-24T00:42:01;4.65;;;2.65;;
61003;SDS011;46889;37.310;13.582;2023-04-24T00:44:27;6.37;;;2.37;;
61003;SDS011;46889;37.310;13.582;2023-04-24T00:46:53;4.70;;;2.40;;
61003;SDS011;46889;37.310;13.582;2023-04-24T00:49:20;5.57;;;2.60;;
61003;SDS011;46889;37.310;13.582;2023-04-24T00:51:47;4.78;;;2.75;;
61003;SDS011;46889;37.310;13.582;2023-04-24T00:56:40;4.30;;;2.30;;
61003;SDS011;46889;37.310;13.582;2023-04-24T00:59:07;7.60;;;2.50;;
61003;SDS011;46889;37.310;13.582;2023-04-24T01:01:34;9.05;;;2.58;;
61003;SDS011;46889;37.310;13.582;2023-04-24T01:04:01;3.63;;;2.10;;
61003;SDS011;46889;37.310;13.582;2023-04-24T01:06:28;6.05;;;2.30;;
61003;SDS011;46889;37.310;13.582;2023-04-24T01:08:56;3.42;;;2.10;;
61003;SDS011;46889;37.310;13.582;2023-04-24T01:11:24;3.85;;;2.35;;
61003;SDS011;46889;37.310;13.582;2023-04-24T01:13:51;4.63;;;2.40;;
61003;SDS011;46889;37.310;13.582;2023-04-24T01:16:17;4.03;;;2.63;;
61003;SDS011;46889;37.310;13.582;2023-04-24T01:18:47;3.60;;;2.60;;
61003;SDS011;46889;37.310;13.582;2023-04-24T01:21:14;4.30;;;2.42;;
61003;SDS011;46889;37.310;13.582;2023-04-24T01:23:44;3.63;;;2.25;;
61003;SDS011;46889;37.310;13.582;2023-04-24T01:26:11;4.93;;;2.33;;
61003;SDS011;46889;37.310;13.582;2023-04-24T01:28:38;3.72;;;2.20;;
61003;SDS011;46889;37.310;13.582;2023-04-24T01:31:05;3.28;;;2.17;;
61003;SDS011;46889;37.310;13.582;2023-04-24T01:33:32;3.78;;;2.25;;
61003;SDS011;46889;37.310;13.582;2023-04-24T01:35:58;5.47;;;2.10;;
61003;SDS011;46889;37.310;13.582;2023-04-24T01:38:24;4.57;;;2.70;;
61003;SDS011;46889;37.310;13.582;2023-04-24T01:40:51;3.58;;;2.22;;
61003;SDS011;46889;37.310;13.582;2023-04-24T01:43:17;5.60;;;2.53;;
61003;SDS011;46889;37.310;13.582;2023-04-24T01:45:50;6.00;;;2.50;;
61003;SDS011;46889;37.310;13.582;2023-04-24T01:48:16;3.97;;;2.40;;
61003;SDS011;46889;37.310;13.582;2023-04-24T01:50:43;5.07;;;2.35;;
61003;SDS011;46889;37.310;13.582;2023-04-24T01:53:09;4.87;;;2.50;;
61003;SDS011;46889;37.310;13.582;2023-04-24T01:55:35;4.07;;;2.30;;
61003;SDS011;46889;37.310;13.582;2023-04-24T01:58:01;3.93;;;1.97;;
61003;SDS011;46889;37.310;13.582;2023-04-24T02:00:27;5.57;;;1.85;;
61003;SDS011;46889;37.310;13.582;2023-04-24T02:02:53;2.87;;;1.77;;
61003;SDS011;46889;37.310;13.582;2023-04-24T02:05:19;4.97;;;1.83;;
61003;SDS011;46889;37.310;13.582;2023-04-24T02:07:45;4.57;;;2.15;;
61003;SDS011;46889;37.310;13.582;2023-04-24T02:10:11;4.40;;;1.97;;
61003;SDS011;46889;37.310;13.582;2023-04-24T02:12:37;4.30;;;2.00;;
61003;SDS011;46889;37.310;13.582;2023-04-24T02:15:04;5.17;;;2.00;;
61003;SDS011;46889;37.310;13.582;2023-04-24T02:17:31;4.93;;;2.20;;
61003;SDS011;46889;37.310;13.582;2023-04-24T02:19:58;6.25;;;2.20;;
61003;SDS011;46889;37.310;13.582;2023-04-24T02:22:24;3.37;;;1.87;;
61003;SDS011;46889;37.310;13.582;2023-04-24T02:24:50;8.30;;;2.27;;
61003;SDS011;46889;37.310;13.582;2023-04-24T02:27:16;4.23;;;2.23;;
61003;SDS011;46889;37.310;13.582;2023-04-24T02:29:42;3.63;;;1.80;;
61003;SDS011;46889;37.310;13.582;2023-04-24T02:32:08;4.73;;;2.47;;
61003;SDS011;46889;37.310;13.582;2023-04-24T02:34:37;2.97;;;1.98;;
61003;SDS011;46889;37.310;13.582;2023-04-24T02:37:03;4.07;;;2.03;;
61003;SDS011;46889;37.310;13.582;2023-04-24T02:39:29;3.90;;;1.95;;
61003;SDS011;46889;37.310;13.582;2023-04-24T02:41:55;3.27;;;1.87;;
61003;SDS011;46889;37.310;13.582;2023-04-24T02:44:21;3.93;;;1.90;;
61003;SDS011;46889;37.310;13.582;2023-04-24T02:46:47;3.72;;;1.98;;
61003;SDS011;46889;37.310;13.582;2023-04-24T02:49:13;3.57;;;1.97;;
61003;SDS011;46889;37.310;13.582;2023-04-24T02:51:40;4.45;;;1.75;;
61003;SDS011;46889;37.310;13.582;2023-04-24T02:54:07;2.60;;;1.70;;
61003;SDS011;46889;37.310;13.582;2023-04-24T02:56:34;3.65;;;1.92;;
61003;SDS011;46889;37.310;13.582;2023-04-24T02:59:01;3.20;;;2.15;;
61003;SDS011;46889;37.310;13.582;2023-04-24T03:01:29;3.00;;;1.60;;
61003;SDS011;46889;37.310;13.582;2023-04-24T03:03:55;3.08;;;2.03;;
61003;SDS011;46889;37.310;13.582;2023-04-24T03:06:21;3.13;;;1.90;;
61003;SDS011;46889;37.310;13.582;2023-04-24T03:08:48;6.85;;;1.75;;
61003;SDS011;46889;37.310;13.582;2023-04-24T03:11:14;3.13;;;1.90;;
61003;SDS011;46889;37.310;13.582;2023-04-24T03:13:40;5.37;;;1.90;;
61003;SDS011;46889;37.310;13.582;2023-04-24T03:16:06;2.77;;;2.00;;
61003;SDS011;46889;37.310;13.582;2023-04-24T03:18:33;5.30;;;2.10;;
61003;SDS011;46889;37.310;13.582;2023-04-24T03:21:00;5.95;;;2.30;;
61003;SDS011;46889;37.310;13.582;2023-04-24T03:23:26;4.22;;;2.25;;
61003;SDS011;46889;37.310;13.582;2023-04-24T03:25:52;3.20;;;1.97;;
61003;SDS011;46889;37.310;13.582;2023-04-24T03:28:19;4.70;;;2.00;;
61003;SDS011;46889;37.310;13.582;2023-04-24T03:30:45;3.47;;;2.30;;
61003;SDS011;46889;37.310;13.582;2023-04-24T03:33:11;3.13;;;2.00;;
61003;SDS011;46889;37.310;13.582;2023-04-24T03:35:38;3.60;;;1.97;;
61003;SDS011;46889;37.310;13.582;2023-04-24T03:38:04;4.07;;;2.13;;
61003;SDS011;46889;37.310;13.582;2023-04-24T03:40:30;4.93;;;2.33;;
61003;SDS011;46889;37.310;13.582;2023-04-24T03:42:58;5.28;;;2.20;;
61003;SDS011;46889;37.310;13.582;2023-04-24T03:45:30;6.43;;;2.45;;
61003;SDS011;46889;37.310;13.582;2023-04-24T03:47:56;3.47;;;1.98;;
61003;SDS011;46889;37.310;13.582;2023-04-24T03:50:22;5.00;;;2.40;;
61003;SDS011;46889;37.310;13.582;2023-04-24T03:52:48;3.65;;;2.03;;
61003;SDS011;46889;37.310;13.582;2023-04-24T03:55:14;3.63;;;2.00;;
61003;SDS011;46889;37.310;13.582;2023-04-24T03:57:40;3.57;;;2.00;;
61003;SDS011;46889;37.310;13.582;2023-04-24T04:00:07;5.55;;;2.35;;
61003;SDS011;46889;37.310;13.582;2023-04-24T04:02:34;4.47;;;2.03;;
61003;SDS011;46889;37.310;13.582;2023-04-24T04:05:00;3.47;;;2.17;;
61003;SDS011;46889;37.310;13.582;2023-04-24T04:07:27;5.07;;;2.35;;
61003;SDS011;46889;37.310;13.582;2023-04-24T04:09:54;3.85;;;2.40;;
61003;SDS011;46889;37.310;13.582;2023-04-24T04:12:20;5.73;;;2.40;;
61003;SDS011;46889;37.310;13.582;2023-04-24T04:14:46;3.90;;;2.20;;
61003;SDS011;46889;37.310;13.582;2023-04-24T04:17:12;4.70;;;2.30;;
61003;SDS011;46889;37.310;13.582;2023-04-24T04:19:39;6.22;;;2.25;;
61003;SDS011;46889;37.310;13.582;2023-04-24T04:22:05;4.38;;;2.13;;
61003;SDS011;46889;37.310;13.582;2023-04-24T04:24:33;4.25;;;2.40;;
61003;SDS011;46889;37.310;13.582;2023-04-24T04:27:03;5.50;;;2.60;;
61003;SDS011;46889;37.310;13.582;2023-04-24T04:29:30;5.28;;;2.40;;
61003;SDS011;46889;37.310;13.582;2023-04-24T04:31:57;3.75;;;2.40;;
61003;SDS011;46889;37.310;13.582;2023-04-24T04:36:50;6.90;;;2.30;;
61003;SDS011;46889;37.310;13.582;2023-04-24T04:39:16;5.25;;;2.50;;
61003;SDS011;46889;37.310;13.582;2023-04-24T04:44:11;7.63;;;2.60;;
61003;SDS011;46889;37.310;13.582;2023-04-24T04:46:37;5.80;;;2.70;;
61003;SDS011;46889;37.310;13.582;2023-04-24T04:49:04;4.40;;;2.50;;
61003;SDS011;46889;37.310;13.582;2023-04-24T04:51:30;6.18;;;2.50;;
61003;SDS011;46889;37.310;13.582;2023-04-24T04:53:57;6.43;;;3.05;;
61003;SDS011;46889;37.310;13.582;2023-04-24T04:56:23;6.60;;;4.10;;
61003;SDS011;46889;37.310;13.582;2023-04-24T04:58:49;8.07;;;3.47;;
61003;SDS011;46889;37.310;13.582;2023-04-24T05:01:15;7.77;;;3.43;;
61003;SDS011;46889;37.310;13.582;2023-04-24T05:03:41;6.80;;;2.60;;
61003;SDS011;46889;37.310;13.582;2023-04-24T05:06:07;9.00;;;2.83;;
61003;SDS011;46889;37.310;13.582;2023-04-24T05:08:33;8.30;;;2.83;;
61003;SDS011;46889;37.310;13.582;2023-04-24T05:10:59;7.40;;;3.10;;
61003;SDS011;46889;37.310;13.582;2023-04-24T05:13:25;7.00;;;2.83;;
61003;SDS011;46889;37.310;13.582;2023-04-24T05:15:51;8.57;;;2.90;;
61003;SDS011;46889;37.310;13.582;2023-04-24T05:18:17;6.78;;;2.85;;
61003;SDS011;46889;37.310;13.582;2023-04-24T05:20:43;6.47;;;2.70;;
61003;SDS011;46889;37.310;13.582;2023-04-24T05:23:09;5.18;;;2.00;;
61003;SDS011;46889;37.310;13.582;2023-04-24T05:25:36;3.50;;;2.00;;
61003;SDS011;46889;37.310;13.582;2023-04-24T05:28:04;7.72;;;2.53;;
61003;SDS011;46889;37.310;13.582;2023-04-24T05:30:30;4.78;;;2.38;;
61003;SDS011;46889;37.310;13.582;2023-04-24T05:32:56;5.53;;;2.20;;
61003;SDS011;46889;37.310;13.582;2023-04-24T05:35:22;6.82;;;2.58;;
61003;SDS011;46889;37.310;13.582;2023-04-24T05:37:48;11.82;;;2.63;;
61003;SDS011;46889;37.310;13.582;2023-04-24T05:40:15;9.30;;;2.25;;
61003;SDS011;46889;37.310;13.582;2023-04-24T05:42:41;4.55;;;2.10;;
61003;SDS011;46889;37.310;13.582;2023-04-24T05:45:07;5.15;;;1.90;;
61003;SDS011;46889;37.310;13.582;2023-04-24T05:47:34;8.43;;;2.05;;
61003;SDS011;46889;37.310;13.582;2023-04-24T05:50:00;11.45;;;2.10;;
61003;SDS011;46889;37.310;13.582;2023-04-24T05:52:26;6.38;;;2.03;;
61003;SDS011;46889;37.310;13.582;2023-04-24T05:54:52;8.45;;;1.67;;
61003;SDS011;46889;37.310;13.582;2023-04-24T05:59:44;7.50;;;1.98;;
61003;SDS011;46889;37.310;13.582;2023-04-24T06:04:36;4.90;;;2.08;;
61003;SDS011;46889;37.310;13.582;2023-04-24T06:07:02;7.70;;;2.05;;
61003;SDS011;46889;37.310;13.582;2023-04-24T06:09:28;20.13;;;2.22;;
61003;SDS011;46889;37.310;13.582;2023-04-24T06:11:54;4.53;;;2.03;;
61003;SDS011;46889;37.310;13.582;2023-04-24T06:14:22;5.13;;;1.92;;
61003;SDS011;46889;37.310;13.582;2023-04-24T06:16:48;4.13;;;1.75;;
61003;SDS011;46889;37.310;13.582;2023-04-24T06:19:14;4.95;;;1.80;;
61003;SDS011;46889;37.310;13.582;2023-04-24T06:21:40;5.78;;;1.70;;
61003;SDS011;46889;37.310;13.582;2023-04-24T06:24:06;4.93;;;1.65;;
61003;SDS011;46889;37.310;13.582;2023-04-24T06:26:32;4.20;;;1.60;;
61003;SDS011;46889;37.310;13.582;2023-04-24T06:28:58;14.15;;;2.33;;
61003;SDS011;46889;37.310;13.582;2023-04-24T06:31:25;5.47;;;2.10;;
61003;SDS011;46889;37.310;13.582;2023-04-24T06:33:51;7.63;;;1.75;;
61003;SDS011;46889;37.310;13.582;2023-04-24T06:36:18;5.85;;;1.95;;
61003;SDS011;46889;37.310;13.582;2023-04-24T06:38:45;9.10;;;2.58;;
61003;SDS011;46889;37.310;13.582;2023-04-24T06:41:11;6.68;;;2.20;;
61003;SDS011;46889;37.310;13.582;2023-04-24T06:43:38;4.20;;;1.60;;
61003;SDS011;46889;37.310;13.582;2023-04-24T06:46:04;28.02;;;3.53;;
61003;SDS011;46889;37.310;13.582;2023-04-24T06:48:30;7.07;;;1.90;;
61003;SDS011;46889;37.310;13.582;2023-04-24T06:50:56;7.38;;;2.33;;
61003;SDS011;46889;37.310;13.582;2023-04-24T06:53:22;5.03;;;2.17;;
61003;SDS011;46889;37.310;13.582;2023-04-24T06:55:48;4.18;;;1.83;;
61003;SDS011;46889;37.310;13.582;2023-04-24T06:58:15;15.82;;;2.47;;
61003;SDS011;46889;37.310;13.582;2023-04-24T07:00:41;4.32;;;2.05;;
61003;SDS011;46889;37.310;13.582;2023-04-24T07:03:07;6.85;;;2.17;;
61003;SDS011;46889;37.310;13.582;2023-04-24T07:05:33;5.93;;;2.05;;
61003;SDS011;46889;37.310;13.582;2023-04-24T07:08:00;3.42;;;1.80;;
61003;SDS011;46889;37.310;13.582;2023-04-24T07:10:26;6.18;;;2.30;;
61003;SDS011;46889;37.310;13.582;2023-04-24T07:12:54;4.82;;;2.20;;
61003;SDS011;46889;37.310;13.582;2023-04-24T07:15:21;7.10;;;2.40;;
61003;SDS011;46889;37.310;13.582;2023-04-24T07:17:48;4.55;;;2.30;;
61003;SDS011;46889;37.310;13.582;2023-04-24T07:20:15;10.82;;;2.20;;
61003;SDS011;46889;37.310;13.582;2023-04-24T07:22:41;3.80;;;2.20;;
61003;SDS011;46889;37.310;13.582;2023-04-24T07:25:07;4.80;;;2.22;;
61003;SDS011;46889;37.310;13.582;2023-04-24T07:27:34;6.90;;;1.92;;
61003;SDS011;46889;37.310;13.582;2023-04-24T07:30:01;7.28;;;2.50;;
61003;SDS011;46889;37.310;13.582;2023-04-24T07:32:31;4.22;;;2.40;;
61003;SDS011;46889;37.310;13.582;2023-04-24T07:34:58;8.27;;;2.42;;
61003;SDS011;46889;37.310;13.582;2023-04-24T07:37:24;3.40;;;2.50;;
61003;SDS011;46889;37.310;13.582;2023-04-24T07:39:50;5.53;;;2.70;;
61003;SDS011;46889;37.310;13.582;2023-04-24T07:42:16;6.00;;;2.95;;
61003;SDS011;46889;37.310;13.582;2023-04-24T07:44:42;8.93;;;2.83;;
61003;SDS011;46889;37.310;13.582;2023-04-24T07:47:10;4.63;;;2.55;;
61003;SDS011;46889;37.310;13.582;2023-04-24T07:49:36;8.52;;;3.20;;
61003;SDS011;46889;37.310;13.582;2023-04-24T07:52:02;11.35;;;3.47;;
61003;SDS011;46889;37.310;13.582;2023-04-24T07:54:29;4.93;;;2.72;;
61003;SDS011;46889;37.310;13.582;2023-04-24T08:01:46;6.82;;;2.80;;
61003;SDS011;46889;37.310;13.582;2023-04-24T08:04:12;5.47;;;3.05;;
61003;SDS011;46889;37.310;13.582;2023-04-24T08:06:38;7.72;;;3.20;;
61003;SDS011;46889;37.310;13.582;2023-04-24T08:09:05;6.47;;;3.13;;
61003;SDS011;46889;37.310;13.582;2023-04-24T08:11:31;5.75;;;2.75;;
61003;SDS011;46889;37.310;13.582;2023-04-24T08:13:57;7.97;;;2.75;;
61003;SDS011;46889;37.310;13.582;2023-04-24T08:16:23;5.25;;;2.88;;
61003;SDS011;46889;37.310;13.582;2023-04-24T08:18:51;5.75;;;3.05;;
61003;SDS011;46889;37.310;13.582;2023-04-24T08:21:18;7.55;;;3.22;;
61003;SDS011;46889;37.310;13.582;2023-04-24T08:23:45;8.40;;;2.95;;
61003;SDS011;46889;37.310;13.582;2023-04-24T08:26:13;7.45;;;3.40;;
61003;SDS011;46889;37.310;13.582;2023-04-24T08:28:42;7.38;;;3.45;;
61003;SDS011;46889;37.310;13.582;2023-04-24T08:31:10;5.68;;;3.38;;
61003;SDS011;46889;37.310;13.582;2023-04-24T08:33:36;8.13;;;3.15;;
61003;SDS011;46889;37.310;13.582;2023-04-24T08:36:03;5.85;;;2.65;;
61003;SDS011;46889;37.310;13.582;2023-04-24T08:38:30;5.55;;;3.50;;
61003;SDS011;46889;37.310;13.582;2023-04-24T08:43:24;7.50;;;2.58;;
61003;SDS011;46889;37.310;13.582;2023-04-24T08:45:52;7.90;;;3.78;;
61003;SDS011;46889;37.310;13.582;2023-04-24T08:48:20;8.93;;;3.67;;
61003;SDS011;46889;37.310;13.582;2023-04-24T08:50:49;4.30;;;3.00;;
61003;SDS011;46889;37.310;13.582;2023-04-24T08:53:16;6.75;;;3.10;;
61003;SDS011;46889;37.310;13.582;2023-04-24T08:55:43;9.85;;;3.97;;
61003;SDS011;46889;37.310;13.582;2023-04-24T08:58:11;7.00;;;3.50;;
61003;SDS011;46889;37.310;13.582;2023-04-24T09:00:38;8.63;;;3.00;;
61003;SDS011;46889;37.310;13.582;2023-04-24T09:03:05;7.60;;;2.90;;
61003;SDS011;46889;37.310;13.582;2023-04-24T09:05:32;9.63;;;4.22;;
61003;SDS011;46889;37.310;13.582;2023-04-24T09:10:25;5.82;;;3.00;;
61003;SDS011;46889;37.310;13.582;2023-04-24T09:12:51;6.82;;;3.08;;
61003;SDS011;46889;37.310;13.582;2023-04-24T09:15:18;7.57;;;2.97;;
61003;SDS011;46889;37.310;13.582;2023-04-24T09:17:45;6.13;;;2.78;;
61003;SDS011;46889;37.310;13.582;2023-04-24T09:20:12;6.63;;;3.08;;
61003;SDS011;46889;37.310;13.582;2023-04-24T09:22:38;8.40;;;4.05;;
61003;SDS011;46889;37.310;13.582;2023-04-24T09:25:05;6.68;;;3.50;;
61003;SDS011;46889;37.310;13.582;2023-04-24T09:27:34;6.70;;;3.47;;
61003;SDS011;46889;37.310;13.582;2023-04-24T09:30:00;4.88;;;3.10;;
61003;SDS011;46889;37.310;13.582;2023-04-24T09:32:27;10.38;;;3.05;;
61003;SDS011;46889;37.310;13.582;2023-04-24T09:37:45;6.43;;;3.78;;
61003;SDS011;46889;37.310;13.582;2023-04-24T09:42:39;6.78;;;3.20;;
61003;SDS011;46889;37.310;13.582;2023-04-24T09:45:10;6.38;;;3.30;;
61003;SDS011;46889;37.310;13.582;2023-04-24T09:47:39;7.22;;;3.60;;
61003;SDS011;46889;37.310;13.582;2023-04-24T09:50:09;9.27;;;3.42;;
61003;SDS011;46889;37.310;13.582;2023-04-24T09:52:40;8.70;;;3.80;;
61003;SDS011;46889;37.310;13.582;2023-04-24T09:55:18;6.03;;;3.30;;
61003;SDS011;46889;37.310;13.582;2023-04-24T09:57:49;9.10;;;4.00;;
61003;SDS011;46889;37.310;13.582;2023-04-24T10:00:19;7.47;;;3.40;;
61003;SDS011;46889;37.310;13.582;2023-04-24T10:02:58;7.55;;;3.00;;
61003;SDS011;46889;37.310;13.582;2023-04-24T10:05:27;5.65;;;3.25;;
61003;SDS011;46889;37.310;13.582;2023-04-24T10:08:01;9.82;;;3.30;;
61003;SDS011;46889;37.310;13.582;2023-04-24T10:10:29;9.65;;;2.88;;
61003;SDS011;46889;37.310;13.582;2023-04-24T10:12:57;11.18;;;3.20;;
61003;SDS011;46889;37.310;13.582;2023-04-24T10:15:24;6.68;;;3.90;;
61003;SDS011;46889;37.310;13.582;2023-04-24T10:17:51;10.65;;;4.30;;
61003;SDS011;46889;37.310;13.582;2023-04-24T10:20:25;14.07;;;3.97;;
61003;SDS011;46889;37.310;13.582;2023-04-24T10:22:53;7.73;;;4.37;;
61003;SDS011;46889;37.310;13.582;2023-04-24T10:25:21;10.43;;;4.50;;
61003;SDS011;46889;37.310;13.582;2023-04-24T10:27:48;5.18;;;2.97;;
61003;SDS011;46889;37.310;13.582;2023-04-24T10:30:16;7.25;;;3.03;;
61003;SDS011;46889;37.310;13.582;2023-04-24T10:32:43;8.75;;;3.22;;
61003;SDS011;46889;37.310;13.582;2023-04-24T10:35:10;5.15;;;2.80;;
61003;SDS011;46889;37.310;13.582;2023-04-24T10:38:12;6.95;;;3.30;;
61003;SDS011;46889;37.310;13.582;2023-04-24T10:40:32;9.60;;;3.25;;
61003;SDS011;46889;37.310;13.582;2023-04-24T10:43:03;4.80;;;2.70;;
61003;SDS011;46889;37.310;13.582;2023-04-24T10:45:36;6.82;;;3.00;;
61003;SDS011;46889;37.310;13.582;2023-04-24T10:48:03;6.60;;;3.00;;
61003;SDS011;46889;37.310;13.582;2023-04-24T10:50:42;8.30;;;3.70;;
61003;SDS011;46889;37.310;13.582;2023-04-24T10:53:17;8.98;;;3.60;;
61003;SDS011;46889;37.310;13.582;2023-04-24T10:55:45;9.93;;;3.45;;
61003;SDS011;46889;37.310;13.582;2023-04-24T10:58:13;7.03;;;3.28;;
61003;SDS011;46889;37.310;13.582;2023-04-24T11:00:41;5.30;;;3.22;;
61003;SDS011;46889;37.310;13.582;2023-04-24T11:03:30;8.82;;;3.63;;
61003;SDS011;46889;37.310;13.582;2023-04-24T11:06:06;5.30;;;3.38;;
61003;SDS011;46889;37.310;13.582;2023-04-24T11:08:43;23.42;;;4.22;;
61003;SDS011;46889;37.310;13.582;2023-04-24T11:11:16;10.57;;;3.80;;
61003;SDS011;46889;37.310;13.582;2023-04-24T11:16:26;5.75;;;3.90;;
61003;SDS011;46889;37.310;13.582;2023-04-24T11:21:40;6.93;;;3.90;;
61003;SDS011;46889;37.310;13.582;2023-04-24T11:24:48;6.70;;;3.70;;
61003;SDS011;46889;37.310;13.582;2023-04-24T11:27:17;8.50;;;4.20;;
61003;SDS011;46889;37.310;13.582;2023-04-24T11:37:39;5.55;;;3.42;;
61003;SDS011;46889;37.310;13.582;2023-04-24T11:40:08;7.15;;;3.92;;
61003;SDS011;46889;37.310;13.582;2023-04-24T11:42:40;7.07;;;4.07;;
61003;SDS011;46889;37.310;13.582;2023-04-24T11:45:11;8.43;;;4.20;;
61003;SDS011;46889;37.310;13.582;2023-04-24T11:47:39;9.95;;;4.80;;
61003;SDS011;46889;37.310;13.582;2023-04-24T11:50:07;6.55;;;4.50;;
61003;SDS011;46889;37.310;13.582;2023-04-24T11:52:38;6.95;;;3.78;;
61003;SDS011;46889;37.310;13.582;2023-04-24T12:00:20;6.43;;;3.60;;
61003;SDS011;46889;37.310;13.582;2023-04-24T12:02:49;8.05;;;4.05;;
61003;SDS011;46889;37.310;13.582;2023-04-24T12:05:22;7.25;;;3.67;;
61003;SDS011;46889;37.310;13.582;2023-04-24T12:07:49;11.10;;;3.88;;
61003;SDS011;46889;37.310;13.582;2023-04-24T12:10:22;9.05;;;3.30;;
61003;SDS011;46889;37.310;13.582;2023-04-24T12:12:50;8.27;;;4.00;;
61003;SDS011;46889;37.310;13.582;2023-04-24T12:15:17;9.55;;;3.92;;
61003;SDS011;46889;37.310;13.582;2023-04-24T12:17:44;5.60;;;3.42;;
61003;SDS011;46889;37.310;13.582;2023-04-24T12:20:11;10.13;;;4.07;;
61003;SDS011;46889;37.310;13.582;2023-04-24T12:25:14;10.50;;;3.65;;
61003;SDS011;46889;37.310;13.582;2023-04-24T12:27:44;7.93;;;3.65;;
61003;SDS011;46889;37.310;13.582;2023-04-24T12:30:12;6.55;;;3.47;;
61003;SDS011;46889;37.310;13.582;2023-04-24T12:32:44;6.20;;;3.30;;
61003;SDS011;46889;37.310;13.582;2023-04-24T12:35:22;8.80;;;3.30;;
61003;SDS011;46889;37.310;13.582;2023-04-24T12:37:49;9.82;;;3.85;;
61003;SDS011;46889;37.310;13.582;2023-04-24T12:40:17;6.97;;;3.70;;
61003;SDS011;46889;37.310;13.582;2023-04-24T12:42:46;7.60;;;4.18;;
61003;SDS011;46889;37.310;13.582;2023-04-24T12:45:14;8.95;;;3.80;;
61003;SDS011;46889;37.310;13.582;2023-04-24T12:47:41;8.43;;;4.15;;
61003;SDS011;46889;37.310;13.582;2023-04-24T12:50:09;8.70;;;3.53;;
61003;SDS011;46889;37.310;13.582;2023-04-24T12:52:37;7.22;;;3.65;;
61003;SDS011;46889;37.310;13.582;2023-04-24T12:55:04;9.10;;;3.30;;
61003;SDS011;46889;37.310;13.582;2023-04-24T12:57:35;8.82;;;3.40;;
61003;SDS011;46889;37.310;13.582;2023-04-24T13:00:02;6.57;;;3.28;;
61003;SDS011;46889;37.310;13.582;2023-04-24T13:02:29;6.78;;;3.72;;
61003;SDS011;46889;37.310;13.582;2023-04-24T13:07:23;9.50;;;3.92;;
61003;SDS011;46889;37.310;13.582;2023-04-24T13:09:49;8.07;;;3.65;;
61003;SDS011;46889;37.310;13.582;2023-04-24T13:12:16;9.35;;;4.35;;
61003;SDS011;46889;37.310;13.582;2023-04-24T13:14:43;7.47;;;3.90;;
61003;SDS011;46889;37.310;13.582;2023-04-24T13:17:10;10.35;;;3.75;;
61003;SDS011;46889;37.310;13.582;2023-04-24T13:19:42;10.18;;;4.28;;
61003;SDS011;46889;37.310;13.582;2023-04-24T13:22:15;6.18;;;3.40;;
61003;SDS011;46889;37.310;13.582;2023-04-24T13:24:42;8.85;;;3.65;;
61003;SDS011;46889;37.310;13.582;2023-04-24T13:27:08;8.52;;;3.85;;
61003;SDS011;46889;37.310;13.582;2023-04-24T13:29:35;7.78;;;4.05;;
61003;SDS011;46889;37.310;13.582;2023-04-24T13:32:02;8.00;;;3.60;;
61003;SDS011;46889;37.310;13.582;2023-04-24T13:34:29;8.52;;;4.30;;
61003;SDS011;46889;37.310;13.582;2023-04-24T13:36:56;6.30;;;3.60;;
61003;SDS011;46889;37.310;13.582;2023-04-24T13:39:23;7.18;;;3.95;;
61003;SDS011;46889;37.310;13.582;2023-04-24T13:41:51;9.48;;;4.28;;
61003;SDS011;46889;37.310;13.582;2023-04-24T13:44:18;8.27;;;3.97;;
61003;SDS011;46889;37.310;13.582;2023-04-24T13:46:46;9.50;;;3.80;;
61003;SDS011;46889;37.310;13.582;2023-04-24T13:49:19;6.63;;;3.40;;
61003;SDS011;46889;37.310;13.582;2023-04-24T13:51:46;9.85;;;3.90;;
61003;SDS011;46889;37.310;13.582;2023-04-24T13:54:12;8.70;;;3.63;;
61003;SDS011;46889;37.310;13.582;2023-04-24T13:56:39;8.90;;;3.67;;
61003;SDS011;46889;37.310;13.582;2023-04-24T14:01:32;7.43;;;3.58;;
61003;SDS011;46889;37.310;13.582;2023-04-24T14:03:58;9.82;;;3.90;;
61003;SDS011;46889;37.310;13.582;2023-04-24T14:06:24;9.77;;;3.97;;
61003;SDS011;46889;37.310;13.582;2023-04-24T14:08:52;11.80;;;4.38;;
61003;SDS011;46889;37.310;13.582;2023-04-24T14:11:18;10.90;;;4.10;;
61003;SDS011;46889;37.310;13.582;2023-04-24T14:13:45;8.82;;;3.75;;
61003;SDS011;46889;37.310;13.582;2023-04-24T14:16:11;8.10;;;3.70;;
61003;SDS011;46889;37.310;13.582;2023-04-24T14:18:37;11.13;;;3.70;;
61003;SDS011;46889;37.310;13.582;2023-04-24T14:21:04;8.90;;;3.55;;
61003;SDS011;46889;37.310;13.582;2023-04-24T14:23:30;7.75;;;3.97;;
61003;SDS011;46889;37.310;13.582;2023-04-24T14:25:57;8.32;;;4.10;;
61003;SDS011;46889;37.310;13.582;2023-04-24T14:30:50;10.52;;;4.40;;
61003;SDS011;46889;37.310;13.582;2023-04-24T14:33:16;12.30;;;4.25;;
61003;SDS011;46889;37.310;13.582;2023-04-24T14:35:43;13.88;;;4.68;;
61003;SDS011;46889;37.310;13.582;2023-04-24T14:38:10;13.43;;;4.05;;
61003;SDS011;46889;37.310;13.582;2023-04-24T14:40:36;8.10;;;3.50;;
61003;SDS011;46889;37.310;13.582;2023-04-24T14:43:02;11.40;;;4.20;;
61003;SDS011;46889;37.310;13.582;2023-04-24T14:45:28;10.48;;;3.80;;
61003;SDS011;46889;37.310;13.582;2023-04-24T14:47:55;8.82;;;3.58;;
61003;SDS011;46889;37.310;13.582;2023-04-24T14:52:47;7.13;;;3.33;;
61003;SDS011;46889;37.310;13.582;2023-04-24T14:55:13;10.23;;;3.70;;
61003;SDS011;46889;37.310;13.582;2023-04-24T14:57:41;8.93;;;3.55;;
61003;SDS011;46889;37.310;13.582;2023-04-24T15:00:07;9.45;;;3.70;;
61003;SDS011;46889;37.310;13.582;2023-04-24T15:02:35;13.88;;;4.40;;
61003;SDS011;46889;37.310;13.582;2023-04-24T15:05:05;11.30;;;4.72;;
61003;SDS011;46889;37.310;13.582;2023-04-24T15:07:32;14.15;;;4.25;;
61003;SDS011;46889;37.310;13.582;2023-04-24T15:09:58;11.93;;;3.80;;
61003;SDS011;46889;37.310;13.582;2023-04-24T15:12:24;13.10;;;4.50;;
61003;SDS011;46889;37.310;13.582;2023-04-24T15:14:50;13.93;;;4.40;;
61003;SDS011;46889;37.310;13.582;2023-04-24T15:17:16;8.77;;;3.50;;
61003;SDS011;46889;37.310;13.582;2023-04-24T15:19:42;10.25;;;3.58;;
61003;SDS011;46889;37.310;13.582;2023-04-24T15:22:09;11.57;;;3.60;;
61003;SDS011;46889;37.310;13.582;2023-04-24T15:24:35;16.10;;;4.03;;
61003;SDS011;46889;37.310;13.582;2023-04-24T15:27:01;12.13;;;3.85;;
61003;SDS011;46889;37.310;13.582;2023-04-24T15:31:54;16.33;;;4.35;;
61003;SDS011;46889;37.310;13.582;2023-04-24T15:34:20;11.50;;;4.03;;